Station info - map view · info · telemetry · weather · raw · status · beacons · messages · bulletins · browse · moving · my account
Callsign, ship name or locator: Clear       
It is possible to search using wildcards (*?) after a prefix. Example: OH*
APRS station IK3PQG-9 - show graphs
Map loading...
Mic-E message: Off duty
Location: 45°30.73' N 11°19.58' E - locator JN55PM92DW - show map - static map
2.9 miles Northeast bearing 41° from Roncà, Provincia di Verona, Veneto, Italy [?]
4.0 miles Northeast bearing 61° from Montecchia di Crosara, Provincia di Verona, Veneto, Italy
48.7 miles West bearing 276° from Venice, Provincia di Venezia, Veneto, Italy
70.3 miles North bearing 360° from Bologna, Provincia di Bologna, Emilia-Romagna, Italy
Last position: 2019-05-06 14:01:07 EDT (12d 19h26m ago)
2019-05-06 20:01:07 CEST local time at Roncà, Italy [?]
Altitude: 774 ft
Course: 216°
Device: Yaesu: FTM-400DR (rig)
Last path: IK3PQG-9>TUSP73 via qAR,IR3EP-11
Positions stored: 67545
Other SSIDs: IK3PQG-11 ik3pqg-2 IK3PQG-3 IK3PQG-7 IK3PQG-DP
Stations near current position of IK3PQG-9 - show more
callsign distance last heard - EDT      callsign distance last heard - EDT
IU3ILN B0.6 miles 61°2019-05-19 09:08:01 IU3ILN-B0.6 miles 61°2019-05-19 09:08:11
IR3UIX-R01.1 miles 142°2019-05-19 09:02:42 IR3UIX B1.1 miles 142°2019-05-05 08:22:21
IR3UIX-B1.1 miles 142°2019-05-05 08:22:31 IN3UFW-N2.6 miles 10°2019-05-18 15:12:06
DW51943.2 miles 159°2019-05-19 09:24:07 Iw3eol-104.4 miles 30°2019-05-14 09:20:22
IK3DNV-94.6 miles 205°2019-05-13 12:22:43 IV3BAM4.6 miles 205°2019-04-28 07:23:28
I3WTT B4.9 miles 302°2019-05-11 05:07:57 I3WTT-B4.9 miles 302°2019-05-11 05:08:07
I3WTT-N4.9 miles 302°2019-04-23 11:59:34 IK3DNV-R15.5 miles 211°2019-05-19 09:03:08
IK3FUS5.7 miles 101°2019-05-18 04:26:41 IK3FUS-MP5.7 miles 101°2019-05-04 08:23:19
CW77315.7 miles 31°2019-05-19 09:11:01 IZ3ZLG-95.8 miles 32°2019-05-18 02:35:17
IZ3NWP-96.3 miles 135°2019-05-14 12:59:12 iz3nwp-36.3 miles 111°2019-05-19 09:24:02
Stations which heard IK3PQG-9 directly on radio –
callsign pkts first heard - EDT last heard longest (tx => rx) longest at - EDT
IK3XTM 14 2019-05-04 04:18:57 2019-05-04 05:44:35 JN55QK > JN55LP 24.0 miles 304° 2019-05-04 04:18:57
IQ3QR-11 17 2019-05-04 09:51:19 2019-05-06 13:46:11 JN55OQ > JN65AS 40.2 miles 83° 2019-05-05 09:20:17
IR4AS 1 2019-05-04 10:13:21 2019-05-04 10:13:21 JN55OS > JN64GB 134.2 miles 151° 2019-05-04 10:13:21
IZ6RDB 2 2019-05-04 10:12:00 2019-05-04 10:13:20 JN55OS > JN63SO 187.5 miles 141° 2019-05-04 10:13:20
IQ3VQ 26 2019-05-04 04:30:56 2019-05-04 05:34:47 JN55OJ > JN55MK 8.7 miles 296° 2019-05-04 04:30:56
IR2BT 1 2019-05-04 04:43:38 2019-05-04 04:43:38 JN55NJ > JN55FO 34.0 miles 296° 2019-05-04 04:43:38
IZ4UFQ-10 1 2019-05-04 10:51:44 2019-05-04 10:51:44 JN55QR > JN54QL 84.8 miles 180° 2019-05-04 10:51:44
IR4AZ 3 2019-05-04 10:54:58 2019-05-06 12:06:31 JN55QQ > JN54TU 60.2 miles 166° 2019-05-04 10:54:58
S59DGO-5 3 2019-05-04 10:01:18 2019-05-05 09:20:50 JN55OQ > JN75FO 157.5 miles 92° 2019-05-05 09:20:50
IR3EG-11 4 2019-05-04 09:30:55 2019-05-04 11:07:23 JN55QP > JN55RR 9.6 miles 37° 2019-05-04 11:07:23
IQ3TS 1 2019-05-04 10:15:24 2019-05-04 10:15:24 JN55OS > JN65VP 127.3 miles 93° 2019-05-04 10:15:24
IR3CA-2 8 2019-05-06 12:27:32 2019-05-06 13:46:09 JN55RK > JN66EA 58.6 miles 49° 2019-05-06 13:40:20
IZ3VIV-15 111 2019-05-04 04:12:23 2019-05-06 13:55:47 JN55OS > JN55PJ 25.6 miles 170° 2019-05-04 10:01:53
IW3FVZ-11 5 2019-05-04 09:29:45 2019-05-05 09:26:15 JN55OR > JN55WH 42.8 miles 131° 2019-05-05 09:16:50
IQ4SC 2 2019-05-04 10:05:00 2019-05-05 09:54:25 JN55OS > JN54IO 83.9 miles 197° 2019-05-04 10:05:00
IR3EO 9 2019-05-04 04:05:11 2019-05-06 13:37:24 JN55QK > JN66OF 106.0 miles 58° 2019-05-04 05:49:20
IZ4AQM 5 2019-05-04 09:44:40 2019-05-06 13:58:46 JN55QR > JN54TD 110.0 miles 172° 2019-05-04 10:51:04
IQ3VO 6 2019-05-04 09:52:31 2019-05-05 09:27:25 JN55QR > JN55MQ 13.7 miles 263° 2019-05-04 10:51:05
IZ4GWE 1 2019-05-04 10:13:20 2019-05-04 10:13:20 JN55OS > JN64CK 104.6 miles 151° 2019-05-04 10:13:20
S56JCH-10 6 2019-05-04 09:36:26 2019-05-05 09:17:24 JN55OS > JN75DS 149.8 miles 89° 2019-05-04 10:06:45
IK3YBX-10 20 2019-05-04 09:25:05 2019-05-05 09:39:18 JN55OS > JN65DM 56.1 miles 108° 2019-05-04 10:21:17
T79PRS 1 2019-05-04 10:13:20 2019-05-04 10:13:20 JN55OS > JN63FV 142.5 miles 154° 2019-05-04 10:13:20
IR3EH 23 2019-05-04 04:13:33 2019-05-06 13:46:06 JN55OJ > JN66DB 69.8 miles 46° 2019-05-04 04:30:19
IR3EP-11 147 2019-05-04 04:07:00 2019-05-06 14:01:07 JN55OS > JN55SK 28.4 miles 142° 2019-05-04 10:22:00
IK3OCD-10 32 2019-05-04 09:38:15 2019-05-05 09:29:44 JN55OS > JN65AL 47.9 miles 114° 2019-05-04 10:09:05
IR2BP 18 2019-05-04 04:18:21 2019-05-04 05:37:52 JN55QK > JN55DN 52.9 miles 279° 2019-05-04 04:18:21
IQ3ZF 1 2019-05-04 05:16:07 2019-05-04 05:16:07 JN55NJ > JN55KL 11.3 miles 295° 2019-05-04 05:16:07

Only position packets which were originated by the station are shown here. The range statistics show some extra long hops, because some digipeaters do not correctly add themselves to the digipeater path. Please check the raw packets.
About this site
This page shows real-time information collected from the Automatic Position Reporting System Internet network (APRS-IS). APRS is used by amateur (ham) radio operators to transmit real-time position information, weather data, telemetry and messages over the radio. A vehicle equipped with a GPS receiver, a VHF transmitter or HF transceiver and a small computer device called a tracker transmits it's location, speed and course in a small data packet, which is then received by a nearby iGate receiving site which forwards the packet on the Internet. Systems connected to the Internet can send information on the APRS-IS without a radio transmitter, or collect and display information transmitted anywhere in the world.
FAQ · Blog · Discussion group · Linking to aprs.fi · AIS sites · Service status · Database statistics · Advertising on aprs.fi · Technical details · API · Change log · Planned changes · Credits and thanks · Terms Of Service · iPhone/iPad APRS